Time;durP1;ratioP1;P1;durP2;ratioP2;P2;SDS_P1;SDS_P2;PMS_P1;PMS_P2;Temp;Humidity;BMP_temperature;BMP_pressure;BME280_temperature;BME280_humidity;BME280_pressure;Samples;Min_cycle;Max_cycle;Signal;HPM_P1;HPM_P2
2022/03/29 00:01:55;;;;;;;1999.90;999.90;;;12.50;99.90;;;;;;4994507;28;20427;-70
2022/03/29 00:04:20;;;;;;;1999.90;999.90;;;12.60;99.90;;;;;;4994303;28;20414;-71
2022/03/29 00:06:46;;;;;;;1999.90;999.90;;;12.50;99.90;;;;;;4994496;28;20402;-71
2022/03/29 00:09:12;;;;;;;1999.90;999.90;;;12.50;99.90;;;;;;4994348;28;20178;-70
2022/03/29 00:11:37;;;;;;;1999.90;999.90;;;12.50;99.90;;;;;;4994292;28;20205;-70
2022/03/29 00:14:05;;;;;;;1999.90;999.90;;;12.40;99.90;;;;;;4994298;28;20265;-70
2022/03/29 00:16:31;;;;;;;1999.90;999.90;;;12.30;99.90;;;;;;4994448;28;20218;-70
2022/03/29 00:18:57;;;;;;;1999.90;999.90;;;12.30;99.90;;;;;;4993244;28;20523;-70
2022/03/29 00:21:22;;;;;;;1999.90;999.90;;;12.30;99.90;;;;;;4994187;28;20430;-70
2022/03/29 00:23:48;;;;;;;1999.90;999.90;;;12.20;99.90;;;;;;4994136;28;20531;-70
2022/03/29 00:26:14;;;;;;;1999.90;999.90;;;12.20;99.90;;;;;;4993861;28;20178;-70
2022/03/29 00:28:40;;;;;;;1999.90;999.90;;;12.10;99.90;;;;;;4994043;28;20601;-70
2022/03/29 00:31:06;;;;;;;1999.90;999.90;;;12.10;99.90;;;;;;4994067;28;20520;-70
2022/03/29 00:33:31;;;;;;;1999.90;999.90;;;12.00;99.90;;;;;;4993999;28;20417;-70
2022/03/29 00:35:57;;;;;;;1999.90;999.90;;;12.10;99.90;;;;;;4993702;28;20578;-70
2022/03/29 00:38:22;;;;;;;1999.90;999.90;;;12.10;99.90;;;;;;4993781;28;20197;-70
2022/03/29 00:40:48;;;;;;;1999.90;999.90;;;12.10;99.90;;;;;;5039948;23;20229;-67
2022/03/29 00:43:13;;;;;;;1999.90;999.90;;;12.00;99.90;;;;;;5013569;28;20174;-67
2022/03/29 00:45:39;;;;;;;1999.90;999.90;;;12.00;99.90;;;;;;5013298;28;20177;-67
2022/03/29 00:48:08;;;;;;;1999.90;999.90;;;12.00;99.90;;;;;;5013414;28;20252;-67
2022/03/29 00:50:37;;;;;;;1999.90;999.90;;;12.00;99.90;;;;;;5013327;28;20196;-67
2022/03/29 00:53:04;;;;;;;1999.90;999.90;;;11.90;99.90;;;;;;5013195;28;20541;-67
2022/03/29 00:55:30;;;;;;;1999.90;999.90;;;11.90;99.90;;;;;;5013252;28;20549;-67
2022/03/29 00:57:57;;;;;;;1999.90;999.90;;;11.90;99.90;;;;;;5013364;28;20410;-67
2022/03/29 01:00:23;;;;;;;1999.90;999.90;;;12.00;99.90;;;;;;5013021;28;20459;-66
2022/03/29 01:02:48;;;;;;;1999.90;999.90;;;12.00;99.90;;;;;;5013214;28;20412;-67
2022/03/29 01:05:14;;;;;;;1999.90;999.90;;;11.90;99.90;;;;;;5012873;28;20396;-67
2022/03/29 01:07:40;;;;;;;1999.90;999.90;;;11.90;99.90;;;;;;5013062;28;20169;-67
2022/03/29 01:10:06;;;;;;;1999.90;999.90;;;11.90;99.90;;;;;;5013184;28;20684;-67
2022/03/29 01:12:33;;;;;;;1999.90;999.90;;;11.90;99.90;;;;;;5013057;28;20432;-67
2022/03/29 01:15:03;;;;;;;1999.90;999.90;;;11.90;99.90;;;;;;5012707;28;20420;-67
2022/03/29 01:17:38;;;;;;;1999.90;999.90;;;11.90;99.90;;;;;;5012882;28;20415;-67
2022/03/29 01:20:29;;;;;;;1999.90;999.90;;;11.90;99.90;;;;;;5012646;28;20970;-67
2022/03/29 01:22:57;;;;;;;1999.90;999.90;;;11.90;99.90;;;;;;5012907;28;20419;-67
2022/03/29 01:25:25;;;;;;;1999.90;999.90;;;11.80;99.90;;;;;;5012582;28;20404;-67
2022/03/29 01:27:53;;;;;;;1999.90;999.90;;;11.70;99.90;;;;;;5012671;28;20412;-67
2022/03/29 01:30:20;;;;;;;1999.90;999.90;;;11.70;99.90;;;;;;5012305;28;20443;-67
2022/03/29 01:32:49;;;;;;;1999.90;999.90;;;11.70;99.90;;;;;;5012797;28;20890;-67
2022/03/29 01:35:23;;;;;;;1999.90;999.90;;;11.70;99.90;;;;;;5012408;28;20407;-67
2022/03/29 01:37:50;;;;;;;1999.90;999.90;;;11.70;99.90;;;;;;5012601;28;20448;-67
2022/03/29 01:40:19;;;;;;;1999.90;999.90;;;11.60;99.90;;;;;;5012484;28;20868;-67
2022/03/29 01:43:03;;;;;;;1999.90;999.90;;;11.60;99.90;;;;;;5012629;28;20937;-67
2022/03/29 01:45:30;;;;;;;1999.90;999.90;;;11.70;99.90;;;;;;5012392;28;20402;-67
2022/03/29 01:47:56;;;;;;;1999.90;999.90;;;11.70;99.90;;;;;;5012783;28;21003;-67
2022/03/29 01:50:23;;;;;;;1999.90;999.90;;;11.70;99.90;;;;;;5012503;28;20458;-67
2022/03/29 01:52:49;;;;;;;1999.90;999.90;;;11.70;99.90;;;;;;5012448;28;20414;-67
2022/03/29 01:55:19;;;;;;;1999.90;999.90;;;11.70;99.90;;;;;;5012173;28;20401;-67
2022/03/29 01:57:46;;;;;;;1999.90;999.90;;;11.70;99.90;;;;;;5012462;28;20407;-67
2022/03/29 02:00:33;;;;;;;1999.90;999.90;;;11.70;99.90;;;;;;5012265;28;20447;-67
2022/03/29 02:03:04;;;;;;;1999.90;999.90;;;11.70;99.90;;;;;;5012346;28;20396;-67
2022/03/29 02:05:31;;;;;;;1999.90;999.90;;;11.70;99.90;;;;;;5011976;28;20458;-67
2022/03/29 02:07:57;;;;;;;1999.90;999.90;;;11.60;99.90;;;;;;5012150;28;20407;-66
2022/03/29 02:10:23;;;;;;;1999.90;999.90;;;11.60;99.90;;;;;;5012077;28;20518;-67
2022/03/29 02:12:50;;;;;;;1999.90;999.90;;;11.50;99.90;;;;;;5012392;28;20554;-67
2022/03/29 02:15:16;;;;;;;1999.90;999.90;;;11.40;99.90;;;;;;5011936;28;20204;-66
2022/03/29 02:17:44;;;;;;;1999.90;999.90;;;11.40;99.90;;;;;;5012166;28;20419;-68
2022/03/29 02:20:10;;;;;;;1999.90;999.90;;;11.40;99.90;;;;;;5011914;28;20816;-67
2022/03/29 02:22:36;;;;;;;1999.90;999.90;;;11.40;99.90;;;;;;5011967;28;20411;-67
2022/03/29 02:25:03;;;;;;;1999.90;999.90;;;11.40;99.90;;;;;;5011711;28;20408;-68
2022/03/29 02:27:29;;;;;;;1999.90;999.90;;;11.50;99.90;;;;;;5011998;28;20535;-67
2022/03/29 02:29:54;;;;;;;1999.90;999.90;;;11.40;99.90;;;;;;5011823;28;20492;-67
2022/03/29 02:32:20;;;;;;;1999.90;999.90;;;11.40;99.90;;;;;;5011957;28;20584;-67
2022/03/29 02:34:45;;;;;;;1999.90;999.90;;;11.40;99.90;;;;;;5011661;28;20251;-67
2022/03/29 02:37:13;;;;;;;1999.90;999.90;;;11.40;99.90;;;;;;5011902;28;20176;-68
2022/03/29 02:39:39;;;;;;;1999.90;999.90;;;11.40;99.90;;;;;;5011847;28;20204;-67
2022/03/29 02:42:06;;;;;;;1999.90;999.90;;;11.40;99.90;;;;;;5013804;28;20898;-67
2022/03/29 02:44:32;;;;;;;1999.90;999.90;;;11.40;99.90;;;;;;5015386;28;20431;-68
2022/03/29 02:46:57;;;;;;;1999.90;999.90;;;11.40;99.90;;;;;;5015692;28;20411;-68
2022/03/29 02:49:24;;;;;;;1999.90;999.90;;;11.30;99.90;;;;;;5015513;28;20401;-67
2022/03/29 02:51:50;;;;;;;1999.90;999.90;;;11.40;99.90;;;;;;5015411;28;20233;-68
2022/03/29 02:54:16;;;;;;;1999.90;999.90;;;11.40;99.90;;;;;;5015182;28;20444;-67
2022/03/29 02:56:42;;;;;;;1999.90;999.90;;;11.40;99.90;;;;;;5015559;28;20671;-68
2022/03/29 02:59:08;;;;;;;1999.90;999.90;;;11.40;99.90;;;;;;5015297;28;20197;-67
2022/03/29 03:01:33;;;;;;;1999.90;999.90;;;11.30;99.90;;;;;;5015363;28;20235;-68
2022/03/29 03:03:59;;;;;;;1999.90;999.90;;;11.30;99.90;;;;;;5015010;28;20446;-66
2022/03/29 03:06:25;;;;;;;1999.90;999.90;;;11.30;99.90;;;;;;5015154;28;20165;-68
2022/03/29 03:08:50;;;;;;;1999.90;999.90;;;11.30;99.90;;;;;;5015149;28;20688;-67
2022/03/29 03:11:16;;;;;;;1999.90;999.90;;;11.30;99.90;;;;;;5015293;28;20193;-67
2022/03/29 03:13:42;;;;;;;1999.90;999.90;;;11.30;99.90;;;;;;5015048;28;20169;-67
2022/03/29 03:16:08;;;;;;;1999.90;999.90;;;11.30;99.90;;;;;;5014769;28;20188;-68
2022/03/29 03:18:34;;;;;;;1999.90;999.90;;;11.30;99.90;;;;;;5014877;28;20936;-68
2022/03/29 03:21:00;;;;;;;1999.90;999.90;;;11.30;99.90;;;;;;5014806;28;20499;-67
2022/03/29 03:23:26;;;;;;;1999.90;999.90;;;11.40;99.90;;;;;;5015095;28;20451;-66
2022/03/29 03:25:51;;;;;;;1999.90;999.90;;;11.30;99.90;;;;;;5014823;28;20557;-68
2022/03/29 03:28:17;;;;;;;1999.90;999.90;;;11.30;99.90;;;;;;5015050;28;20203;-68
2022/03/29 03:30:43;;;;;;;1999.90;999.90;;;11.30;99.90;;;;;;5014686;28;20434;-68
2022/03/29 03:33:08;;;;;;;1999.90;999.90;;;11.30;99.90;;;;;;5014723;28;20269;-68
2022/03/29 03:35:34;;;;;;;1999.90;999.90;;;11.30;99.90;;;;;;5014583;28;20599;-67
2022/03/29 03:38:00;;;;;;;1999.90;999.90;;;11.30;99.90;;;;;;5014850;28;20204;-67
2022/03/29 03:40:26;;;;;;;1999.90;999.90;;;11.30;99.90;;;;;;5014411;28;20208;-67
2022/03/29 03:42:51;;;;;;;1999.90;999.90;;;11.30;99.90;;;;;;5014664;28;20165;-67
2022/03/29 03:45:17;;;;;;;1999.90;999.90;;;11.20;99.90;;;;;;5014533;28;20605;-67
2022/03/29 03:47:43;;;;;;;1999.90;999.90;;;11.20;99.90;;;;;;5014450;28;20255;-67
2022/03/29 03:50:10;;;;;;;1999.90;999.90;;;11.20;99.90;;;;;;5014258;28;20180;-68
2022/03/29 03:52:35;;;;;;;1999.90;999.90;;;11.10;99.90;;;;;;5014243;28;20423;-68
2022/03/29 03:55:01;;;;;;;1999.90;999.90;;;11.20;99.90;;;;;;5014008;28;20897;-68
2022/03/29 03:57:27;;;;;;;1999.90;999.90;;;11.10;99.90;;;;;;5014380;28;20635;-68
2022/03/29 03:59:55;;;;;;;1999.90;999.90;;;11.10;99.90;;;;;;5014194;28;20456;-68
2022/03/29 04:02:22;;;;;;;1999.90;999.90;;;11.00;99.90;;;;;;5014074;28;20222;-68
2022/03/29 04:04:48;;;;;;;1999.90;999.90;;;11.00;99.90;;;;;;5013987;28;20407;-68
2022/03/29 04:07:14;;;;;;;1999.90;999.90;;;11.10;99.90;;;;;;5014068;28;20936;-67
2022/03/29 04:09:39;;;;;;;1999.90;999.90;;;11.00;99.90;;;;;;5014003;28;20177;-68
2022/03/29 04:12:07;;;;;;;1999.90;999.90;;;11.00;99.90;;;;;;5013912;28;20470;-68
2022/03/29 04:14:32;;;;;;;1999.90;999.90;;;11.00;99.90;;;;;;5013658;28;20177;-67
2022/03/29 04:16:58;;;;;;;1999.90;999.90;;;10.90;99.90;;;;;;5013851;28;20483;-67
2022/03/29 04:19:24;;;;;;;1999.90;999.90;;;10.90;99.90;;;;;;5013789;28;20585;-68
2022/03/29 04:21:50;;;;;;;1999.90;999.90;;;11.00;99.90;;;;;;5013780;28;20196;-68
2022/03/29 04:24:15;;;;;;;1999.90;999.90;;;10.90;99.90;;;;;;5013474;28;20416;-68
2022/03/29 04:26:41;;;;;;;1999.90;999.90;;;10.90;99.90;;;;;;5013760;28;20538;-67
2022/03/29 04:29:07;;;;;;;1999.90;999.90;;;10.90;99.90;;;;;;5013804;28;20676;-68
2022/03/29 04:31:33;;;;;;;1999.90;999.90;;;10.80;99.90;;;;;;5013567;28;20677;-68
2022/03/29 04:34:00;;;;;;;1999.90;999.90;;;10.70;99.90;;;;;;5013381;28;20179;-67
2022/03/29 04:36:26;;;;;;;1999.90;999.90;;;10.70;99.90;;;;;;5013739;28;20177;-67
2022/03/29 04:38:52;;;;;;;1999.90;999.90;;;10.70;99.90;;;;;;5013409;28;20450;-67
2022/03/29 04:41:18;;;;;;;1999.90;999.90;;;10.60;99.90;;;;;;5013269;28;20448;-68
2022/03/29 04:43:44;;;;;;;1999.90;999.90;;;10.70;99.90;;;;;;5013423;28;20931;-67
2022/03/29 04:46:09;;;;;;;1999.90;999.90;;;10.70;99.90;;;;;;5013114;28;20673;-67
2022/03/29 04:48:35;;;;;;;1999.90;999.90;;;10.70;99.90;;;;;;5013370;28;20196;-68
2022/03/29 04:51:01;;;;;;;1999.90;999.90;;;10.60;99.90;;;;;;5013249;28;20275;-68
2022/03/29 04:53:26;;;;;;;1999.90;999.90;;;10.70;99.90;;;;;;5013259;28;20173;-67
2022/03/29 04:55:52;;;;;;;1999.90;999.90;;;10.70;99.90;;;;;;5012972;28;20263;-67
2022/03/29 04:58:18;;;;;;;1999.90;999.90;;;10.70;99.90;;;;;;5013112;28;20183;-66
2022/03/29 05:00:43;;;;;;;1999.90;999.90;;;10.70;99.90;;;;;;5012919;28;20280;-68
2022/03/29 05:03:09;;;;;;;1999.90;999.90;;;10.70;99.90;;;;;;5012957;28;20429;-68
2022/03/29 05:05:35;;;;;;;1999.90;999.90;;;10.70;99.90;;;;;;5012088;28;20168;-68
2022/03/29 05:08:00;;;;;;;1999.90;999.90;;;10.70;99.90;;;;;;5013149;28;20681;-68
2022/03/29 05:10:26;;;;;;;1999.90;999.90;;;10.70;99.90;;;;;;5012888;28;20599;-68
2022/03/29 05:12:52;;;;;;;1999.90;999.90;;;10.70;99.90;;;;;;5012991;28;20173;-67
2022/03/29 05:15:19;;;;;;;1999.90;999.90;;;10.70;99.90;;;;;;5012577;28;20259;-68
2022/03/29 05:17:45;;;;;;;1999.90;999.90;;;10.70;99.90;;;;;;5012789;28;20252;-68
2022/03/29 05:20:12;;;;;;;1999.90;999.90;;;10.70;99.90;;;;;;5012866;28;20887;-68
2022/03/29 05:22:52;;;;;;;1999.90;999.90;;;10.70;99.90;;;;;;5012756;28;20399;-68
2022/03/29 05:25:23;;;;;;;1999.90;999.90;;;10.70;99.90;;;;;;5012395;28;20418;-68
2022/03/29 05:27:49;;;;;;;1999.90;999.90;;;10.70;99.90;;;;;;5012698;28;20774;-68
2022/03/29 05:30:16;;;;;;;1999.90;999.90;;;10.70;99.90;;;;;;5012333;28;20430;-68
2022/03/29 05:32:42;;;;;;;1999.90;999.90;;;10.60;99.90;;;;;;5012586;28;20425;-67
2022/03/29 05:35:09;;;;;;;1999.90;999.90;;;10.50;99.90;;;;;;5012276;28;20480;-67
2022/03/29 05:37:36;;;;;;;1999.90;999.90;;;10.40;99.90;;;;;;5012517;28;20783;-66
2022/03/29 05:40:04;;;;;;;1999.90;999.90;;;10.40;99.90;;;;;;5012391;28;20462;-66
2022/03/29 05:42:29;;;;;;;1999.90;999.90;;;10.40;99.90;;;;;;5012510;28;20767;-67
2022/03/29 05:44:55;;;;;;;1999.90;999.90;;;10.40;99.90;;;;;;5012139;28;20407;-68
2022/03/29 05:50:06;;;;;;;1999.90;999.90;;;10.40;99.90;;;;;;5012563;28;20311;-68
2022/03/29 05:52:31;;;;;;;1999.90;999.90;;;10.30;99.90;;;;;;5012335;28;20554;-67
2022/03/29 05:54:57;;;;;;;1999.90;999.90;;;10.30;99.90;;;;;;5012131;28;20494;-68
2022/03/29 05:57:23;;;;;;;1999.90;999.90;;;10.20;99.90;;;;;;5012192;28;20181;-67
2022/03/29 05:59:48;;;;;;;1999.90;999.90;;;10.10;99.90;;;;;;5012179;28;20455;-68
2022/03/29 06:02:14;;;;;;;1999.90;999.90;;;10.10;99.90;;;;;;5012116;28;20224;-67
2022/03/29 06:04:40;;;;;;;1999.90;999.90;;;10.20;99.90;;;;;;5011912;28;20171;-68
2022/03/29 06:07:07;;;;;;;1999.90;999.90;;;10.30;99.90;;;;;;5012290;28;20180;-67
2022/03/29 06:09:34;;;;;;;1999.90;999.90;;;10.30;99.90;;;;;;5012146;28;20568;-68
2022/03/29 06:12:01;;;;;;;1999.90;999.90;;;10.50;99.90;;;;;;5012020;28;20441;-67
2022/03/29 06:14:27;;;;;;;1999.90;999.90;;;10.50;99.90;;;;;;5011994;28;20415;-67
2022/03/29 06:16:55;;;;;;;1999.90;999.90;;;10.60;99.90;;;;;;5013433;28;20423;-68
2022/03/29 06:19:21;;;;;;;1999.90;999.90;;;10.60;99.90;;;;;;5015090;28;20553;-68
2022/03/29 06:21:46;;;;;;;1999.90;999.90;;;10.70;99.90;;;;;;5015636;28;20443;-67
2022/03/29 06:24:12;;;;;;;1999.90;999.90;;;10.70;99.90;;;;;;5015030;28;20497;-67
2022/03/29 06:26:39;;;;;;;1999.90;999.90;;;10.80;99.90;;;;;;5015951;28;20556;-67
2022/03/29 06:29:06;;;;;;;1999.90;999.90;;;10.90;99.90;;;;;;5016115;28;20255;-68
2022/03/29 06:31:31;;;;;;;1999.90;999.90;;;10.90;99.90;;;;;;5015825;28;20431;-68
2022/03/29 06:33:57;;;;;;;1999.90;999.90;;;10.80;99.90;;;;;;5015760;28;20481;-68
2022/03/29 06:36:23;;;;;;;1999.90;999.90;;;10.80;99.90;;;;;;5015676;28;20207;-67
2022/03/29 06:38:49;;;;;;;1999.90;999.90;;;10.90;99.90;;;;;;5015576;28;20614;-67
2022/03/29 06:41:15;;;;;;;1999.90;999.90;;;10.90;99.90;;;;;;5015183;28;20541;-67
2022/03/29 06:43:41;;;;;;;1999.90;999.90;;;10.80;99.90;;;;;;5015495;28;20187;-67
2022/03/29 06:46:09;;;;;;;1999.90;999.90;;;10.80;99.90;;;;;;5015046;28;20413;-67
2022/03/29 06:48:38;;;;;;;1999.90;999.90;;;10.90;99.90;;;;;;5015545;28;20444;-67
2022/03/29 06:51:04;;;;;;;1999.90;999.90;;;10.90;99.90;;;;;;5015507;28;20499;-67
2022/03/29 06:53:29;;;;;;;1999.90;999.90;;;10.90;99.90;;;;;;5015563;28;20834;-67
2022/03/29 06:55:55;;;;;;;1999.90;999.90;;;10.80;99.90;;;;;;5015235;28;20276;-67
2022/03/29 06:58:20;;;;;;;1999.90;999.90;;;10.80;99.90;;;;;;5015373;28;20173;-67
2022/03/29 07:00:47;;;;;;;1999.90;999.90;;;11.00;99.90;;;;;;5015525;28;20258;-67
2022/03/29 07:03:13;;;;;;;1999.90;999.90;;;11.10;99.90;;;;;;5015259;28;20600;-67
2022/03/29 07:05:42;;;;;;;1999.90;999.90;;;11.10;99.90;;;;;;5015079;28;20439;-67
2022/03/29 07:08:11;;;;;;;1999.90;999.90;;;11.20;99.90;;;;;;5015243;28;20602;-67
2022/03/29 07:13:22;;;;;;;1999.90;999.90;;;11.30;99.90;;;;;;5015140;28;20874;-67
2022/03/29 07:15:51;;;;;;;1999.90;999.90;;;11.30;99.90;;;;;;5014834;28;20411;-67
2022/03/29 07:18:17;;;;;;;1999.90;999.90;;;11.40;99.90;;;;;;5014977;28;20415;-67
2022/03/29 07:20:42;;;;;;;1999.90;999.90;;;11.40;99.90;;;;;;5015051;28;20482;-67
2022/03/29 07:23:08;;;;;;;1999.90;999.90;;;11.40;99.90;;;;;;5015009;28;20407;-66
2022/03/29 07:25:34;;;;;;;1999.90;999.90;;;11.30;99.90;;;;;;5014698;28;20172;-67
2022/03/29 07:28:01;;;;;;;1999.90;999.90;;;11.40;99.90;;;;;;5014351;28;20200;-67
2022/03/29 07:30:27;;;;;;;1999.90;999.90;;;11.50;99.90;;;;;;5014726;28;20427;-67
2022/03/29 07:32:54;;;;;;;1999.90;999.90;;;11.60;99.90;;;;;;5014836;28;20962;-67
2022/03/29 07:35:22;;;;;;;1999.90;999.90;;;11.70;99.90;;;;;;5014413;28;20184;-67
2022/03/29 07:37:48;;;;;;;1999.90;999.90;;;11.70;99.90;;;;;;5014925;28;20411;-67
2022/03/29 07:40:16;;;;;;;1999.90;999.90;;;11.80;99.90;;;;;;5014345;28;20987;-67
2022/03/29 07:42:41;;;;;;;1999.90;999.90;;;11.80;99.90;;;;;;5014781;28;20411;-67
2022/03/29 07:45:11;;;;;;;1999.90;999.90;;;11.80;99.90;;;;;;5014397;28;21130;-67
2022/03/29 07:47:38;;;;;;;1999.90;999.90;;;12.00;99.90;;;;;;5014600;28;20169;-67
2022/03/29 07:50:07;;;;;;;1999.90;999.90;;;12.10;99.90;;;;;;5014367;28;20416;-67
2022/03/29 07:52:37;;;;;;;1999.90;999.90;;;12.20;99.90;;;;;;5014527;28;20410;-67
2022/03/29 07:55:04;;;;;;;1999.90;999.90;;;12.20;99.90;;;;;;5011428;28;20493;-67
2022/03/29 07:57:30;;;;;;;1999.90;999.90;;;12.30;99.90;;;;;;5043607;28;20421;-67
2022/03/29 07:59:56;;;;;;;1999.90;999.90;;;12.50;99.90;;;;;;5013992;28;20447;-67
2022/03/29 08:02:21;;;;;;;1999.90;999.90;;;12.60;99.90;;;;;;5013785;28;20169;-67
2022/03/29 08:04:47;;;;;;;1999.90;999.90;;;12.60;99.90;;;;;;5045166;28;20412;-67
2022/03/29 08:07:13;;;;;;;1999.90;999.90;;;12.80;99.90;;;;;;5013862;28;20201;-67
2022/03/29 08:09:39;;;;;;;1999.90;999.90;;;12.90;99.90;;;;;;5013112;28;20436;-67
2022/03/29 08:12:05;;;;;;;1999.90;999.90;;;13.10;99.90;;;;;;5012878;28;20199;-67
2022/03/29 08:14:32;;;;;;;1999.90;999.90;;;13.20;99.90;;;;;;5013389;28;20563;-67
2022/03/29 08:16:57;;;;;;;1999.90;999.90;;;13.20;99.90;;;;;;5012986;28;20561;-67
2022/03/29 08:19:24;;;;;;;1999.90;999.90;;;13.30;99.90;;;;;;5012820;28;20455;-67
2022/03/29 08:21:50;;;;;;;1999.90;999.90;;;13.50;99.90;;;;;;5013302;28;20725;-67
2022/03/29 08:24:21;;;;;;;1999.90;999.90;;;13.60;99.90;;;;;;5013304;28;20416;-67
2022/03/29 08:26:48;;;;;;;1999.90;999.90;;;13.70;99.90;;;;;;5013125;28;20410;-67
2022/03/29 08:29:16;;;;;;;1999.90;999.90;;;13.80;99.90;;;;;;5013467;28;20431;-67
2022/03/29 08:31:43;;;;;;;1999.90;999.90;;;13.80;99.90;;;;;;5012694;28;20556;-67
2022/03/29 08:34:08;;;;;;;1999.90;999.90;;;13.90;99.90;;;;;;5012626;28;20418;-67
2022/03/29 08:36:36;;;;;;;1999.90;999.90;;;13.90;99.90;;;;;;5013142;28;20508;-67
2022/03/29 08:39:03;;;;;;;1999.90;999.90;;;14.00;99.90;;;;;;5012166;28;20189;-68
2022/03/29 08:41:37;;;;;;;1999.90;999.90;;;14.20;99.90;;;;;;5012477;28;20450;-68
2022/03/29 08:44:04;;;;;;;1999.90;999.90;;;14.40;99.90;;;;;;5012692;28;20482;-68
2022/03/29 08:46:42;;;;;;;1999.90;999.90;;;14.50;99.90;;;;;;5012714;28;20494;-67
2022/03/29 08:49:10;;;;;;;1999.90;999.90;;;14.40;99.90;;;;;;5012553;28;20420;-68
2022/03/29 08:51:39;;;;;;;1999.90;999.90;;;14.40;99.90;;;;;;5012919;28;20428;-67
2022/03/29 08:54:05;;;;;;;1999.90;999.90;;;14.50;99.90;;;;;;5010315;28;20773;-67
2022/03/29 08:56:32;;;;;;;1999.90;999.90;;;14.30;99.90;;;;;;5012290;28;21082;-67
2022/03/29 08:58:58;;;;;;;1999.90;999.90;;;14.20;99.90;;;;;;5012538;28;21003;-67
2022/03/29 09:01:24;;;;;;;1999.90;999.90;;;14.20;99.90;;;;;;5012594;28;20425;-67
2022/03/29 09:04:11;;;;;;;1999.90;999.90;;;14.20;99.90;;;;;;5012364;28;20184;-67
2022/03/29 09:06:58;;;;;;;1999.90;999.90;;;14.30;99.90;;;;;;5012544;28;20173;-67
2022/03/29 09:09:31;;;;;;;1999.90;999.90;;;14.40;99.90;;;;;;5011448;28;20472;-67
2022/03/29 09:11:59;;;;;;;1999.90;999.90;;;14.40;99.90;;;;;;5012538;28;20432;-67
2022/03/29 09:14:29;;;;;;;1999.90;999.90;;;14.60;99.90;;;;;;5012181;28;20420;-67
2022/03/29 09:16:55;;;;;;;1999.90;999.90;;;14.60;99.90;;;;;;5012131;28;20411;-67
2022/03/29 09:19:23;;;;;;;1999.90;999.90;;;14.70;99.90;;;;;;5012269;28;20922;-67
2022/03/29 09:21:51;;;;;;;1999.90;999.90;;;14.90;99.90;;;;;;5012253;28;20512;-67
2022/03/29 09:24:18;;;;;;;1999.90;999.90;;;15.20;99.90;;;;;;5011704;28;20425;-67
2022/03/29 09:26:54;;;;;;;1999.90;999.90;;;15.30;99.90;;;;;;5012355;28;20409;-69
2022/03/29 09:29:22;;;;;;;1999.90;999.90;;;15.50;99.90;;;;;;5012584;28;20397;-69
2022/03/29 09:32:06;;;;;;;1999.90;999.90;;;15.70;99.90;;;;;;5013286;28;20425;-68
2022/03/29 09:34:33;;;;;;;1999.90;999.90;;;15.90;99.90;;;;;;5012628;28;20415;-69
2022/03/29 09:37:01;;;;;;;1999.90;999.90;;;16.10;99.90;;;;;;5012675;28;20406;-69
2022/03/29 09:39:38;;;;;;;1999.90;999.90;;;16.30;99.90;;;;;;5012524;28;20711;-70
2022/03/29 09:42:12;;;;;;;1999.90;999.90;;;16.50;99.90;;;;;;5012809;28;20985;-68
2022/03/29 09:44:52;;;;;;;1999.90;999.90;;;16.60;99.90;;;;;;5012341;28;20417;-70
2022/03/29 09:47:20;;;;;;;1999.90;999.90;;;16.60;99.90;;;;;;5012353;28;20517;-69
2022/03/29 09:49:53;;;;;;;1999.90;999.90;;;16.60;99.90;;;;;;5010700;28;20414;-67
2022/03/29 09:52:27;;;;;;;1999.90;999.90;;;16.60;99.90;;;;;;5011902;28;20452;-67
2022/03/29 09:55:21;;;;;;;1999.90;999.90;;;16.60;99.90;;;;;;5011252;28;20413;-67
2022/03/29 09:57:51;;;;;;;1999.90;999.90;;;16.70;99.90;;;;;;5011895;28;20466;-67
2022/03/29 10:00:32;;;;;;;1999.90;999.90;;;16.50;99.90;;;;;;5011855;28;20536;-67
2022/03/29 10:03:01;;;;;;;1999.90;999.90;;;16.40;99.90;;;;;;5011329;28;20420;-67
2022/03/29 10:05:28;;;;;;;1999.90;999.90;;;16.40;99.90;;;;;;5011503;28;20509;-67
2022/03/29 10:10:46;;;;;;;1999.90;999.90;;;17.00;99.90;;;;;;5011700;28;20431;-67
2022/03/29 10:13:14;;;;;;;1999.90;999.90;;;17.20;99.90;;;;;;5011400;28;20407;-67
2022/03/29 10:15:41;;;;;;;1999.90;999.90;;;17.40;99.90;;;;;;5011401;28;20473;-67
2022/03/29 10:18:08;;;;;;;1999.90;999.90;;;17.50;99.90;;;;;;5011204;28;20787;-68
2022/03/29 10:20:35;;;;;;;1999.90;999.90;;;17.70;99.90;;;;;;5011653;28;20461;-68
2022/03/29 10:23:01;;;;;;;1999.90;999.90;;;17.80;99.90;;;;;;5011417;28;20919;-67
2022/03/29 10:25:27;;;;;;;1999.90;999.90;;;17.90;99.90;;;;;;5010601;28;20808;-68
2022/03/29 10:27:56;;;;;;;1999.90;999.90;;;18.00;99.90;;;;;;5011436;28;20398;-67
2022/03/29 10:30:35;;;;;;;1999.90;999.90;;;18.10;99.90;;;;;;5011351;28;21086;-67
2022/03/29 10:33:24;;;;;;;1999.90;999.90;;;18.10;99.90;;;;;;5011147;28;20463;-67
2022/03/29 10:35:58;;;;;;;1999.90;999.90;;;18.00;99.90;;;;;;5011029;28;20498;-68
2022/03/29 10:38:43;;;;;;;1999.90;999.90;;;18.20;99.90;;;;;;5010911;28;20404;-68
2022/03/29 10:41:27;;;;;;;1999.90;999.90;;;18.40;99.90;;;;;;5011308;28;20445;-68
2022/03/29 10:44:14;;;;;;;1999.90;999.90;;;18.70;99.90;;;;;;5011309;28;20466;-67
2022/03/29 10:46:48;;;;;;;1999.90;999.90;;;18.90;99.90;;;;;;5010626;28;20911;-68
2022/03/29 10:49:28;;;;;;;1999.90;999.90;;;19.00;99.90;;;;;;5011253;28;20409;-67
2022/03/29 10:52:21;;;;;;;1999.90;999.90;;;19.10;99.90;;;;;;5011460;28;20425;-67
2022/03/29 10:54:48;;;;;;;1999.90;999.90;;;18.80;99.90;;;;;;5010700;28;20449;-68
2022/03/29 10:57:14;;;;;;;1999.90;999.90;;;18.40;99.90;;;;;;5011244;28;20451;-67
2022/03/29 10:59:40;;;;;;;1999.90;999.90;;;18.30;99.90;;;;;;5011514;28;21033;-68
2022/03/29 11:02:15;;;;;;;1999.90;999.90;;;18.40;99.90;;;;;;5011411;28;20559;-67
2022/03/29 11:05:06;;;;;;;1999.90;999.90;;;18.60;99.90;;;;;;5014723;28;20174;-67
2022/03/29 11:07:54;;;;;;;1999.90;999.90;;;19.00;99.90;;;;;;5014654;28;20397;-68
2022/03/29 11:10:23;;;;;;;1999.90;999.90;;;19.20;99.90;;;;;;5011917;28;20526;-67
2022/03/29 11:12:51;;;;;;;1999.90;999.90;;;19.40;99.30;;;;;;5014890;28;20801;-68
2022/03/29 11:15:36;;;;;;;1999.90;999.90;;;19.50;99.00;;;;;;5014169;28;20415;-68
2022/03/29 11:18:23;;;;;;;1999.90;999.90;;;19.40;96.20;;;;;;5014510;28;20381;-68
2022/03/29 11:20:54;;;;;;;1999.90;999.90;;;19.40;99.20;;;;;;5014471;28;20449;-68
2022/03/29 11:23:40;;;;;;;1999.90;999.90;;;19.40;98.10;;;;;;5014273;28;20402;-67
2022/03/29 11:26:08;;;;;;;1999.90;999.90;;;19.80;98.80;;;;;;5014375;28;20396;-68
2022/03/29 11:28:34;;;;;;;1999.90;999.90;;;20.30;98.70;;;;;;5014294;28;20402;-68
2022/03/29 11:31:00;;;;;;;1999.90;999.90;;;20.60;95.50;;;;;;5014170;28;20470;-68
2022/03/29 11:33:35;;;;;;;1999.90;999.90;;;20.80;95.60;;;;;;5014205;28;20839;-68
2022/03/29 11:36:05;;;;;;;1999.90;999.90;;;20.90;92.80;;;;;;5013944;28;20170;-68
2022/03/29 11:38:33;;;;;;;1999.90;999.90;;;21.00;91.30;;;;;;5013789;28;20404;-67
2022/03/29 11:40:59;;;;;;;1999.90;999.90;;;21.10;91.90;;;;;;5014007;28;20847;-67
2022/03/29 11:43:25;;;;;;;1999.90;999.90;;;21.10;88.20;;;;;;5014072;28;20420;-67
2022/03/29 11:45:52;;;;;;;1999.90;999.90;;;21.00;87.40;;;;;;5013143;28;20411;-68
2022/03/29 11:48:20;;;;;;;1999.90;999.90;;;21.30;92.30;;;;;;5013680;28;20961;-68
2022/03/29 11:50:52;;;;;;;1999.90;999.90;;;21.60;86.30;;;;;;5012655;28;20440;-68
2022/03/29 11:53:19;;;;;;;1999.90;999.90;;;21.80;77.40;;;;;;5013557;28;20476;-68
2022/03/29 11:56:05;;;;;;;1999.90;999.90;;;21.60;75.80;;;;;;5013382;28;20969;-68
2022/03/29 11:58:35;;;;;;;1999.90;999.90;;;21.40;78.30;;;;;;5013850;28;20420;-67
2022/03/29 12:01:04;;;;;;;1999.90;999.90;;;21.50;78.30;;;;;;5012651;28;20483;-68
2022/03/29 12:03:34;;;;;;;1999.90;999.90;;;21.90;79.30;;;;;;5013555;28;20976;-68
2022/03/29 12:06:14;;;;;;;1999.90;999.90;;;22.00;70.20;;;;;;5013335;28;20404;-68
2022/03/29 12:08:46;;;;;;;1999.90;999.90;;;22.00;67.30;;;;;;5013421;28;20493;-67
2022/03/29 12:11:12;;;;;;;1999.90;999.90;;;21.70;66.30;;;;;;5013774;28;20851;-67
2022/03/29 12:13:38;;;;;;;1999.90;999.90;;;21.70;65.40;;;;;;5013538;28;20448;-67